Time;durP1;ratioP1;P1;durP2;ratioP2;P2;SDS_P1;SDS_P2;PMS_P1;PMS_P2;Temp;Humidity;BMP_temperature;BMP_pressure;BME280_temperature;BME280_humidity;BME280_pressure;Samples;Min_cycle;Max_cycle;Signal;HPM_P1;HPM_P2
2023/01/19 00:01:36;;;;;;;20.05;8.70;;;;;;;1.06;100.00;100048.09;5031277;28;20060;-64
2023/01/19 00:04:02;;;;;;;22.48;9.43;;;;;;;1.07;100.00;100036.63;5031399;28;20056;-65
2023/01/19 00:06:27;;;;;;;19.63;10.13;;;;;;;1.08;100.00;100043.50;5031478;28;20029;-64
2023/01/19 00:08:53;;;;;;;19.90;10.38;;;;;;;1.11;100.00;100045.00;5031393;28;20025;-64
2023/01/19 00:11:18;;;;;;;21.83;10.20;;;;;;;1.11;100.00;100041.56;5031467;28;20037;-64
2023/01/19 00:13:50;;;;;;;19.45;9.80;;;;;;;1.12;100.00;100046.66;5031183;28;20021;-64
2023/01/19 00:16:17;;;;;;;21.42;11.52;;;;;;;1.11;100.00;100037.13;5031230;28;20044;-64
2023/01/19 00:18:46;;;;;;;21.60;10.52;;;;;;;1.11;100.00;100036.31;5031164;28;20026;-64
2023/01/19 00:21:13;;;;;;;20.20;9.95;;;;;;;1.03;100.00;100043.16;5031229;28;20038;-64
2023/01/19 00:23:39;;;;;;;21.85;9.88;;;;;;;0.96;100.00;100041.31;5030841;28;20520;-64
2023/01/19 00:26:05;;;;;;;19.92;9.70;;;;;;;0.88;100.00;100031.56;5031035;28;20219;-64
2023/01/19 00:28:30;;;;;;;19.60;8.90;;;;;;;0.85;100.00;100051.06;5031057;28;20029;-64
2023/01/19 00:30:55;;;;;;;21.65;9.90;;;;;;;0.84;100.00;100044.19;5031017;28;20064;-64
2023/01/19 00:33:21;;;;;;;17.35;8.73;;;;;;;0.83;100.00;100050.41;5030934;28;20036;-64
2023/01/19 00:35:51;;;;;;;19.83;9.45;;;;;;;0.87;100.00;100050.94;5030893;28;20355;-64
2023/01/19 00:38:16;;;;;;;18.77;10.25;;;;;;;0.88;100.00;100056.00;5030846;28;20036;-64
2023/01/19 00:40:42;;;;;;;20.52;10.85;;;;;;;0.88;100.00;100061.25;5030672;28;20021;-64
2023/01/19 00:43:07;;;;;;;19.08;10.00;;;;;;;0.87;100.00;100053.56;5030684;28;20076;-65
2023/01/19 00:45:33;;;;;;;23.27;12.50;;;;;;;0.87;100.00;100053.56;5030529;28;20065;-64
2023/01/19 00:47:58;;;;;;;19.95;9.40;;;;;;;0.86;100.00;100046.63;5030591;28;20086;-64
2023/01/19 00:50:26;;;;;;;18.98;9.95;;;;;;;0.86;100.00;100058.00;5030422;28;20064;-64
2023/01/19 00:52:53;;;;;;;23.35;10.35;;;;;;;0.84;100.00;100049.44;5030515;28;20037;-64
2023/01/19 00:55:19;;;;;;;19.33;10.05;;;;;;;0.82;100.00;100038.25;5012779;28;20064;-64
2023/01/19 00:57:45;;;;;;;17.80;8.65;;;;;;;0.77;100.00;100029.22;5030466;28;20435;-64
2023/01/19 01:00:20;;;;;;;20.30;9.88;;;;;;;0.79;100.00;100028.06;5030316;28;20030;-64
2023/01/19 01:02:48;;;;;;;24.38;10.80;;;;;;;0.74;100.00;100034.78;5030046;28;20385;-65
2023/01/19 01:05:14;;;;;;;20.08;9.18;;;;;;;0.72;100.00;100036.72;5029746;28;20028;-64
2023/01/19 01:07:40;;;;;;;19.30;10.80;;;;;;;0.71;100.00;100037.66;5029032;28;20037;-64
2023/01/19 01:10:14;;;;;;;24.55;10.43;;;;;;;0.64;100.00;100027.78;5029796;28;20156;-64
2023/01/19 01:12:40;;;;;;;19.73;10.25;;;;;;;0.71;100.00;100040.28;5030104;28;20033;-64
2023/01/19 01:15:08;;;;;;;21.42;9.48;;;;;;;0.72;100.00;100041.97;5030140;28;20037;-64
2023/01/19 01:17:34;;;;;;;16.17;8.45;;;;;;;0.76;100.00;100036.25;5030162;28;20029;-64
2023/01/19 01:20:00;;;;;;;20.92;9.57;;;;;;;0.76;100.00;100048.53;5029507;28;20044;-64
2023/01/19 01:22:25;;;;;;;19.63;9.63;;;;;;;0.77;100.00;100045.78;5028891;28;20527;-64
2023/01/19 01:24:51;;;;;;;21.83;10.98;;;;;;;0.80;100.00;100053.34;5029023;28;20049;-64
2023/01/19 01:27:16;;;;;;;20.58;10.05;;;;;;;0.83;100.00;100049.56;5028917;28;20025;-64
2023/01/19 01:29:45;;;;;;;18.67;9.75;;;;;;;0.90;100.00;100060.31;5028910;28;20041;-64
2023/01/19 01:32:14;;;;;;;20.83;10.43;;;;;;;0.88;100.00;100056.00;5028889;28;20392;-64
2023/01/19 01:34:40;;;;;;;20.15;9.15;;;;;;;0.91;100.00;100052.25;5028950;28;20032;-64
2023/01/19 01:37:09;;;;;;;20.05;10.60;;;;;;;0.94;100.00;100051.94;5028893;28;20033;-64
2023/01/19 01:39:35;;;;;;;17.92;9.77;;;;;;;0.97;100.00;100056.91;5029015;28;20033;-64
2023/01/19 01:42:01;;;;;;;22.58;10.60;;;;;;;1.01;100.00;100052.16;5028836;28;20040;-66
2023/01/19 01:44:49;;;;;;;20.65;10.15;;;;;;;1.04;100.00;100044.78;5029164;28;20091;-64
2023/01/19 01:47:23;;;;;;;18.75;9.18;;;;;;;0.99;100.00;100041.81;5029248;28;20098;-64
2023/01/19 01:49:56;;;;;;;21.30;10.05;;;;;;;0.95;100.00;100053.59;5011826;28;20396;-65
2023/01/19 01:52:23;;;;;;;20.58;10.57;;;;;;;0.97;100.00;100053.44;5029568;28;20040;-64
2023/01/19 01:54:48;;;;;;;19.27;9.75;;;;;;;0.97;100.00;100056.91;5029565;28;20634;-64
2023/01/19 01:57:14;;;;;;;20.67;9.48;;;;;;;0.94;100.00;100044.06;5029549;28;20057;-64
2023/01/19 01:59:44;;;;;;;21.13;10.80;;;;;;;0.91;100.00;100048.81;5029523;28;20026;-64
2023/01/19 02:05:11;;;;;;;17.60;8.40;;;;;;;0.59;100.00;100039.72;5029380;28;20116;-65
2023/01/19 02:13:20;;;;;;;18.90;7.45;;;;;;;0.42;100.00;100055.34;5029641;28;20045;-65
2023/01/19 02:15:58;;;;;;;19.95;9.80;;;;;;;0.42;100.00;100065.00;5029487;28;20033;-65
2023/01/19 02:18:29;;;;;;;19.55;10.23;;;;;;;0.38;100.00;100061.84;5013028;28;20469;-65
2023/01/19 02:21:07;;;;;;;13.98;6.40;;;;;;;0.38;100.00;100066.28;5033254;28;20043;-65
2023/01/19 02:23:40;;;;;;;16.23;7.80;;;;;;;0.32;100.00;100065.09;5031945;28;20050;-64
2023/01/19 02:26:08;;;;;;;14.77;7.32;;;;;;;0.26;100.00;100063.03;5032466;28;20060;-65
2023/01/19 02:28:38;;;;;;;17.50;8.52;;;;;;;0.21;100.00;100070.56;5032664;28;20041;-64
2023/01/19 02:31:05;;;;;;;13.90;7.55;;;;;;;0.17;100.00;100067.38;5032026;28;20039;-65
2023/01/19 02:33:30;;;;;;;18.00;8.48;;;;;;;0.14;100.00;100072.13;5032416;28;20079;-65
2023/01/19 02:35:56;;;;;;;17.90;8.18;;;;;;;0.11;100.00;100062.75;5032410;28;20475;-65
2023/01/19 02:38:26;;;;;;;13.93;6.97;;;;;;;0.13;100.00;100078.31;5014646;28;20043;-64
2023/01/19 02:40:54;;;;;;;19.35;9.57;;;;;;;0.08;100.00;100078.78;5032205;28;20021;-65
2023/01/19 02:43:22;;;;;;;17.25;8.45;;;;;;;0.04;100.00;100089.69;5032231;28;20025;-65
2023/01/19 02:45:48;;;;;;;15.93;8.35;;;;;;;-0.01;100.00;100080.47;5032547;28;20056;-64
2023/01/19 02:48:16;;;;;;;17.08;7.50;;;;;;;-0.02;100.00;100083.25;5032333;28;20423;-65
2023/01/19 02:50:51;;;;;;;21.98;9.85;;;;;;;-0.07;100.00;100077.63;5032445;28;20029;-64
2023/01/19 02:53:31;;;;;;;16.20;7.78;;;;;;;-0.10;100.00;100078.75;5032789;28;20056;-65
2023/01/19 02:56:23;;;;;;;16.75;8.48;;;;;;;-0.11;100.00;100081.50;5032862;28;20080;-65
2023/01/19 02:59:24;;;;;;;18.27;8.18;;;;;;;-0.13;100.00;100089.53;5032860;28;20025;-65
2023/01/19 03:01:55;;;;;;;16.48;8.45;;;;;;;-0.15;100.00;100090.63;5026950;28;20041;-65
2023/01/19 03:04:39;;;;;;;18.45;8.85;;;;;;;-0.19;100.00;100086.66;5032601;28;20037;-65
2023/01/19 03:07:21;;;;;;;18.05;9.02;;;;;;;-0.17;100.00;100090.78;5032566;28;20044;-65
2023/01/19 03:09:55;;;;;;;20.67;9.63;;;;;;;-0.12;100.00;100101.66;5032607;28;20141;-65
2023/01/19 03:12:47;;;;;;;18.20;10.00;;;;;;;-0.16;100.00;100094.22;5014583;28;20504;-67
2023/01/19 03:15:51;;;;;;;21.55;10.15;;;;;;;-0.14;100.00;100103.59;5032428;28;20440;-65
2023/01/19 03:18:23;;;;;;;18.23;8.50;;;;;;;-0.15;100.00;100099.31;5028508;28;20049;-65
2023/01/19 03:20:52;;;;;;;17.42;8.95;;;;;;;-0.12;100.00;100101.66;5032198;28;20021;-65
2023/01/19 03:23:21;;;;;;;19.85;9.60;;;;;;;-0.12;100.00;100093.78;5031654;28;20050;-65
2023/01/19 03:25:49;;;;;;;20.58;9.60;;;;;;;-0.08;100.00;100107.41;5031397;28;20042;-65
2023/01/19 03:28:18;;;;;;;18.08;9.10;;;;;;;-0.10;100.00;100104.13;5031235;28;20022;-65
2023/01/19 03:30:51;;;;;;;23.88;10.98;;;;;;;-0.08;100.00;100113.50;5030214;28;20029;-65
2023/01/19 03:33:26;;;;;;;15.32;9.27;;;;;;;-0.12;100.00;100114.75;5031083;28;20169;-65
2023/01/19 03:35:56;;;;;;;15.77;8.80;;;;;;;-0.11;100.00;100132.13;5031378;28;20377;-65
2023/01/19 03:38:25;;;;;;;16.55;8.45;;;;;;;-0.11;100.00;100128.69;5031222;28;20036;-65
2023/01/19 03:40:57;;;;;;;14.50;8.02;;;;;;;-0.13;100.00;100141.09;5031311;28;20461;-66
2023/01/19 03:43:24;;;;;;;16.42;9.05;;;;;;;-0.14;100.00;100142.06;5031279;28;20051;-65
2023/01/19 03:45:51;;;;;;;15.05;7.93;;;;;;;-0.19;100.00;100139.88;5031396;28;20113;-66
2023/01/19 03:48:19;;;;;;;14.23;7.13;;;;;;;-0.21;100.00;100147.06;5031359;28;20025;-65
2023/01/19 03:50:45;;;;;;;16.38;9.70;;;;;;;-0.18;100.00;100152.03;5031256;28;20663;-65
2023/01/19 03:53:13;;;;;;;15.48;8.07;;;;;;;-0.22;100.00;100154.09;5031323;28;20116;-65
2023/01/19 03:55:42;;;;;;;13.98;7.38;;;;;;;-0.22;100.00;100167.19;5031668;28;20110;-65
2023/01/19 03:58:07;;;;;;;14.25;7.45;;;;;;;-0.27;100.00;100153.69;5031647;28;20073;-65
2023/01/19 04:00:35;;;;;;;14.55;7.40;;;;;;;-0.30;100.00;100145.31;5031584;28;20056;-65
2023/01/19 04:03:01;;;;;;;13.90;7.28;;;;;;;-0.27;100.00;100169.41;5031665;28;20025;-65
2023/01/19 04:05:28;;;;;;;14.60;7.50;;;;;;;-0.28;100.00;100165.16;5030941;28;20025;-65
2023/01/19 04:07:54;;;;;;;20.08;8.85;;;;;;;-0.28;100.00;100169.56;5031315;28;20033;-65
2023/01/19 04:10:20;;;;;;;14.63;8.23;;;;;;;-0.29;100.00;100166.13;5030780;28;20040;-65
2023/01/19 04:12:45;;;;;;;12.77;7.28;;;;;;;-0.28;100.00;100178.25;5031648;28;20033;-65
2023/01/19 04:15:11;;;;;;;13.77;7.47;;;;;;;-0.30;100.00;100171.50;5031321;28;20140;-65
2023/01/19 04:17:37;;;;;;;16.23;8.48;;;;;;;-0.29;100.00;100167.91;5030786;28;20469;-65
2023/01/19 04:20:03;;;;;;;13.27;7.32;;;;;;;-0.32;100.00;100171.63;5030899;28;20045;-65
2023/01/19 04:22:29;;;;;;;15.20;7.82;;;;;;;-0.35;100.00;100174.56;5030915;28;20501;-65
2023/01/19 04:24:54;;;;;;;12.07;6.38;;;;;;;-0.34;100.00;100175.38;5030617;28;20072;-65
2023/01/19 04:27:20;;;;;;;11.85;6.53;;;;;;;-0.33;100.00;100182.28;5030088;28;20065;-65
2023/01/19 04:29:45;;;;;;;11.40;6.63;;;;;;;-0.42;100.00;100160.38;5030141;28;20033;-65
2023/01/19 04:32:12;;;;;;;12.05;6.35;;;;;;;-0.33;100.00;100179.66;5030041;28;20037;-65
2023/01/19 04:34:37;;;;;;;11.50;6.00;;;;;;;-0.35;100.00;100184.22;5012113;28;20148;-65
2023/01/19 04:37:03;;;;;;;9.43;5.22;;;;;;;-0.31;100.00;100194.28;5029998;28;20171;-65
2023/01/19 04:39:28;;;;;;;11.43;5.32;;;;;;;-0.30;100.00;100185.44;5030394;28;20116;-65
2023/01/19 04:41:56;;;;;;;7.90;4.72;;;;;;;-0.30;100.00;100197.72;5029956;28;20502;-65
2023/01/19 04:44:21;;;;;;;6.90;4.15;;;;;;;-0.31;100.00;100191.66;5029906;28;20144;-65
2023/01/19 04:46:47;;;;;;;6.57;4.07;;;;;;;-0.34;100.00;100194.56;5029807;28;20124;-65
2023/01/19 04:49:12;;;;;;;5.70;3.88;;;;;;;-0.39;100.00;100177.59;5030000;28;20076;-65
2023/01/19 04:51:38;;;;;;;11.55;4.55;;;;;;;-0.35;100.00;100171.94;5030013;28;20060;-65
2023/01/19 04:54:03;;;;;;;5.45;3.60;;;;;;;-0.35;100.00;100169.31;5012497;28;20357;-65
2023/01/19 04:56:28;;;;;;;5.35;3.15;;;;;;;-0.35;100.00;100158.00;5030595;28;20115;-65
2023/01/19 04:58:54;;;;;;;5.22;3.00;;;;;;;-0.36;100.00;100140.66;5030343;28;20026;-65
2023/01/19 05:01:19;;;;;;;5.18;2.40;;;;;;;-0.36;100.00;100131.00;5030352;28;20026;-65
2023/01/19 05:03:45;;;;;;;4.97;3.00;;;;;;;-0.38;100.00;100130.31;5030265;28;20039;-65
2023/01/19 05:06:11;;;;;;;4.50;3.35;;;;;;;-0.41;100.00;100122.75;5030329;28;20076;-65
2023/01/19 05:08:36;;;;;;;4.00;2.67;;;;;;;-0.34;100.00;100125.59;5030371;28;20542;-65
2023/01/19 05:11:02;;;;;;;3.20;2.90;;;;;;;-0.35;100.00;100129.19;5030188;28;20044;-65
2023/01/19 05:13:27;;;;;;;5.30;2.95;;;;;;;-0.33;100.00;100137.75;5029848;28;20030;-64
2023/01/19 05:15:52;;;;;;;3.45;2.20;;;;;;;-0.32;100.00;100144.63;5029995;28;20092;-65
2023/01/19 05:18:18;;;;;;;2.80;2.20;;;;;;;-0.32;100.00;100137.59;5029848;28;20033;-65
2023/01/19 05:20:43;;;;;;;4.03;2.88;;;;;;;-0.31;100.00;100143.66;5029495;28;20477;-65
2023/01/19 05:23:08;;;;;;;4.70;2.47;;;;;;;-0.30;100.00;100147.94;5029873;28;20136;-64
2023/01/19 05:25:34;;;;;;;3.83;2.35;;;;;;;-0.30;100.00;100151.38;5029825;28;20076;-65
2023/01/19 05:27:59;;;;;;;5.32;3.50;;;;;;;-0.32;100.00;100142.81;5029095;28;20029;-64
2023/01/19 05:30:25;;;;;;;5.40;2.97;;;;;;;-0.35;100.00;100144.91;5028877;28;20435;-65
2023/01/19 05:32:50;;;;;;;6.13;3.25;;;;;;;-0.44;100.00;100133.50;5028950;28;20068;-65
2023/01/19 05:35:16;;;;;;;5.57;3.30;;;;;;;-0.34;100.00;100155.25;5028960;28;20029;-65
2023/01/19 05:37:41;;;;;;;7.18;4.05;;;;;;;-0.45;100.00;100144.94;5029058;28;20064;-65
2023/01/19 05:40:08;;;;;;;5.82;3.35;;;;;;;-0.34;100.00;100167.50;5029140;28;20029;-65
2023/01/19 05:42:33;;;;;;;6.00;3.75;;;;;;;-0.36;100.00;100169.47;5028893;28;20037;-65
2023/01/19 05:44:59;;;;;;;5.93;3.63;;;;;;;-0.39;100.00;100175.81;5028805;28;20469;-65
2023/01/19 05:47:24;;;;;;;7.63;3.85;;;;;;;-0.37;100.00;100186.97;5028967;28;20037;-65
2023/01/19 05:49:50;;;;;;;8.68;4.28;;;;;;;-0.36;100.00;100186.00;5029052;28;20036;-65
2023/01/19 05:52:15;;;;;;;8.18;3.67;;;;;;;-0.37;100.00;100186.13;5028575;28;20110;-64
2023/01/19 05:54:41;;;;;;;10.23;4.68;;;;;;;-0.33;100.00;100190.13;5011445;28;20040;-67
2023/01/19 05:57:06;;;;;;;12.50;4.50;;;;;;;-0.34;100.00;100188.47;5029618;28;20030;-65
2023/01/19 05:59:31;;;;;;;9.88;4.53;;;;;;;-0.35;100.00;100182.41;5029642;28;20029;-65
2023/01/19 06:01:58;;;;;;;8.52;4.07;;;;;;;-0.34;100.00;100184.09;5029599;28;20030;-65
2023/01/19 06:04:25;;;;;;;9.73;4.47;;;;;;;-0.33;100.00;100190.13;5012052;28;20397;-64
2023/01/19 06:06:51;;;;;;;8.32;4.30;;;;;;;-0.34;100.00;100184.09;5029504;28;20112;-65
2023/01/19 06:09:16;;;;;;;10.23;5.10;;;;;;;-0.29;100.00;100194.09;5029522;28;20191;-64
2023/01/19 06:11:45;;;;;;;11.85;5.65;;;;;;;-0.28;100.00;100193.97;5029401;28;20040;-65
2023/01/19 06:14:11;;;;;;;11.27;5.35;;;;;;;-0.25;100.00;100187.63;5029534;28;20425;-64
2023/01/19 06:16:37;;;;;;;19.70;6.00;;;;;;;-0.24;100.00;100194.50;5029551;28;20037;-64
2023/01/19 06:19:03;;;;;;;13.77;6.38;;;;;;;-0.26;100.00;100197.28;5029407;28;20473;-65
2023/01/19 06:21:28;;;;;;;14.18;6.53;;;;;;;-0.24;100.00;100203.22;5011960;28;20473;-64
2023/01/19 06:23:53;;;;;;;14.02;6.28;;;;;;;-0.21;100.00;100207.31;5029058;28;20057;-64
2023/01/19 06:26:19;;;;;;;17.13;6.53;;;;;;;-0.18;100.00;100209.69;5011655;28;20459;-64
2023/01/19 06:28:45;;;;;;;12.80;5.35;;;;;;;-0.16;100.00;100215.59;5029394;28;20033;-64
2023/01/19 06:31:10;;;;;;;13.65;5.78;;;;;;;-0.15;100.00;100222.50;5029320;28;20123;-65
2023/01/19 06:33:36;;;;;;;13.73;6.30;;;;;;;-0.19;100.00;100228.16;5029186;28;20079;-65
2023/01/19 06:36:01;;;;;;;14.23;6.85;;;;;;;-0.16;100.00;100231.31;5028743;28;20041;-65
2023/01/19 06:38:27;;;;;;;19.52;8.73;;;;;;;-0.16;100.00;100236.53;5028315;28;20029;-65
2023/01/19 06:40:54;;;;;;;18.63;7.90;;;;;;;-0.18;100.00;100235.03;5028116;28;20037;-65
2023/01/19 06:43:20;;;;;;;16.45;7.22;;;;;;;-0.17;100.00;100244.56;5028105;28;20135;-65
2023/01/19 06:45:46;;;;;;;18.17;7.60;;;;;;;-0.17;100.00;100241.94;5028053;28;20468;-65
2023/01/19 06:48:12;;;;;;;16.40;8.30;;;;;;;-0.17;100.00;100244.56;5028199;28;20041;-64
2023/01/19 06:50:37;;;;;;;19.88;9.52;;;;;;;-0.18;100.00;100249.00;5028085;28;20115;-65
2023/01/19 06:53:02;;;;;;;17.38;8.27;;;;;;;-0.17;100.00;100244.56;5027899;28;20389;-65
2023/01/19 06:55:28;;;;;;;17.27;9.10;;;;;;;-0.18;100.00;100248.13;5010090;28;20121;-65
2023/01/19 06:57:57;;;;;;;19.27;9.52;;;;;;;-0.19;100.00;100259.59;5010253;28;20037;-65
2023/01/19 07:00:23;;;;;;;17.45;8.50;;;;;;;-0.19;100.00;100252.56;5028751;28;20056;-65
2023/01/19 07:02:49;;;;;;;25.88;11.23;;;;;;;-0.17;100.00;100261.09;5028920;28;20029;-65
2023/01/19 07:05:14;;;;;;;22.55;12.45;;;;;;;-0.15;100.00;100267.03;5029977;28;20029;-65
2023/01/19 07:07:41;;;;;;;22.35;11.60;;;;;;;-0.13;100.00;100275.59;5032627;28;20392;-65
2023/01/19 07:10:10;;;;;;;22.27;11.50;;;;;;;-0.13;100.00;100274.75;5032340;28;20504;-65
2023/01/19 07:12:36;;;;;;;23.83;12.35;;;;;;;-0.11;100.00;100276.25;5032036;28;20072;-66
2023/01/19 07:15:01;;;;;;;22.50;12.05;;;;;;;-0.12;100.00;100282.47;5032434;28;20025;-65
2023/01/19 07:17:26;;;;;;;23.63;14.00;;;;;;;-0.13;100.00;100290.47;5032292;28;20029;-65
2023/01/19 07:19:52;;;;;;;23.25;13.02;;;;;;;-0.14;100.00;100299.31;5032237;28;20045;-65
2023/01/19 07:22:17;;;;;;;25.55;14.15;;;;;;;-0.13;100.00;100293.09;5031630;28;20100;-65
2023/01/19 07:24:42;;;;;;;25.13;14.35;;;;;;;-0.10;100.00;100285.78;5031760;28;20132;-66
2023/01/19 07:27:10;;;;;;;23.13;13.23;;;;;;;-0.12;100.00;100287.72;5032067;28;20033;-66
2023/01/19 07:29:35;;;;;;;26.80;15.82;;;;;;;-0.12;100.00;100290.34;5031806;28;20033;-67
2023/01/19 07:32:01;;;;;;;26.65;15.73;;;;;;;-0.09;100.00;100305.78;5031593;28;20396;-65
2023/01/19 07:34:26;;;;;;;25.33;13.55;;;;;;;-0.11;100.00;100310.34;5032017;28;20028;-66
2023/01/19 07:36:51;;;;;;;25.67;16.08;;;;;;;-0.15;100.00;100302.91;5031783;28;20037;-65
2023/01/19 07:39:17;;;;;;;25.23;15.77;;;;;;;-0.17;100.00;100310.91;5031641;28;20021;-65
2023/01/19 07:41:42;;;;;;;27.48;14.52;;;;;;;-0.14;100.00;100307.19;5031815;28;20496;-65
2023/01/19 07:44:08;;;;;;;31.20;16.65;;;;;;;-0.16;100.00;100309.94;5031685;28;20116;-65
2023/01/19 07:46:33;;;;;;;30.15;15.90;;;;;;;-0.17;100.00;100308.28;5031077;28;20037;-65
2023/01/19 07:48:59;;;;;;;33.83;15.43;;;;;;;-0.15;100.00;100313.41;5031307;28;20041;-65
2023/01/19 07:51:24;;;;;;;29.02;14.43;;;;;;;-0.09;100.00;100332.00;5030976;28;20028;-65
2023/01/19 07:53:50;;;;;;;28.63;17.67;;;;;;;-0.04;100.00;100334.19;5031272;28;20473;-65
2023/01/19 07:56:16;;;;;;;30.92;18.45;;;;;;;0.01;100.00;100334.59;5031211;28;20034;-66
2023/01/19 07:58:41;;;;;;;31.63;17.25;;;;;;;0.06;100.00;100334.19;5031196;28;20037;-66
2023/01/19 08:01:08;;;;;;;29.60;15.40;;;;;;;0.07;100.00;100336.66;5031428;28;20029;-66
2023/01/19 08:03:33;;;;;;;29.63;19.13;;;;;;;0.04;100.00;100331.69;5031018;28;20026;-66
2023/01/19 08:05:59;;;;;;;32.65;18.25;;;;;;;0.13;100.00;100350.97;5031410;28;20387;-66
2023/01/19 08:08:24;;;;;;;28.13;17.25;;;;;;;0.15;100.00;100357.75;5031447;28;20028;-66
2023/01/19 08:10:50;;;;;;;30.13;17.23;;;;;;;0.14;100.00;100361.34;5031113;28;20104;-66
2023/01/19 08:13:16;;;;;;;28.50;16.42;;;;;;;0.11;100.00;100356.38;5030895;28;20131;-66
2023/01/19 08:15:42;;;;;;;29.67;15.98;;;;;;;0.09;100.00;100371.44;5030852;28;20017;-66
2023/01/19 08:18:10;;;;;;;29.83;16.42;;;;;;;0.05;100.00;100361.34;5030853;28;20037;-66
2023/01/19 08:20:36;;;;;;;29.17;16.70;;;;;;;0.05;100.00;100371.84;5031306;28;20082;-66
2023/01/19 08:23:03;;;;;;;31.63;15.77;;;;;;;0.02;100.00;100377.38;5031058;28;20140;-66
2023/01/19 08:25:32;;;;;;;28.52;16.58;;;;;;;0.01;100.00;100380.97;5029665;28;20029;-66
2023/01/19 08:27:58;;;;;;;28.88;15.15;;;;;;;0.00;100.00;100390.63;5024277;28;20036;-65
2023/01/19 08:30:25;;;;;;;29.00;17.15;;;;;;;-0.03;100.00;100389.13;5025003;28;20369;-65
2023/01/19 08:32:52;;;;;;;32.65;17.05;;;;;;;0.02;100.00;100400.97;5024610;28;20392;-63
2023/01/19 08:35:18;;;;;;;27.85;16.42;;;;;;;0.03;100.00;100405.22;5024757;28;20025;-67
2023/01/19 08:37:43;;;;;;;31.27;17.60;;;;;;;0.07;100.00;100411.84;5023941;28;20108;-66
2023/01/19 08:40:09;;;;;;;34.88;18.10;;;;;;;0.12;100.00;100407.03;5024194;28;20182;-67
2023/01/19 08:42:34;;;;;;;33.58;17.63;;;;;;;0.18;100.00;100422.19;5023990;28;20029;-67
2023/01/19 08:45:00;;;;;;;27.92;16.08;;;;;;;0.23;100.00;100430.47;5024475;28;20068;-66
2023/01/19 08:47:25;;;;;;;28.38;16.65;;;;;;;0.29;100.00;100432.53;5024817;28;20025;-67
2023/01/19 08:49:51;;;;;;;29.13;17.58;;;;;;;0.37;100.00;100440.53;5023788;28;20479;-66
2023/01/19 08:52:16;;;;;;;29.67;15.88;;;;;;;0.50;100.00;100455.97;5024433;28;20028;-67
2023/01/19 08:54:41;;;;;;;29.50;15.13;;;;;;;0.58;100.00;100461.34;5023558;28;20369;-66
2023/01/19 08:57:07;;;;;;;32.15;16.58;;;;;;;0.59;100.00;100451.66;5022868;28;20087;-67
2023/01/19 08:59:32;;;;;;;30.67;15.82;;;;;;;0.54;100.00;100443.41;5024263;28;20052;-66
2023/01/19 09:01:57;;;;;;;26.70;14.95;;;;;;;0.52;100.00;100450.56;5024837;28;20013;-66
2023/01/19 09:04:23;;;;;;;28.20;15.27;;;;;;;0.51;100.00;100452.38;5024610;28;20473;-64
2023/01/19 09:06:49;;;;;;;31.80;16.60;;;;;;;0.44;100.00;100451.28;5022806;28;20098;-64
2023/01/19 09:09:14;;;;;;;28.10;15.75;;;;;;;0.43;100.00;100453.09;5024574;28;21379;-65
2023/01/19 09:11:39;;;;;;;30.10;16.25;;;;;;;0.42;100.00;100454.06;5024737;28;20083;-65
2023/01/19 09:14:05;;;;;;;27.67;15.52;;;;;;;0.40;100.00;100444.69;5024519;28;20021;-65
2023/01/19 09:16:30;;;;;;;29.92;17.20;;;;;;;0.41;100.00;100451.56;5023906;28;20120;-66
2023/01/19 09:18:56;;;;;;;33.15;16.77;;;;;;;0.37;100.00;100456.28;5024394;28;20037;-66
2023/01/19 09:21:21;;;;;;;31.83;16.45;;;;;;;0.41;100.00;100459.44;5006893;28;20017;-65
2023/01/19 09:23:48;;;;;;;36.58;18.98;;;;;;;0.44;100.00;100459.16;5006181;28;20100;-65
2023/01/19 09:26:13;;;;;;;33.65;18.02;;;;;;;0.52;100.00;100464.50;5006590;28;21391;-65
2023/01/19 09:28:39;;;;;;;39.17;21.05;;;;;;;0.60;100.00;100463.81;5022850;28;20030;-65
2023/01/19 09:31:08;;;;;;;40.80;19.30;;;;;;;0.76;100.00;100458.81;5024678;28;20380;-65
2023/01/19 09:33:33;;;;;;;37.47;18.85;;;;;;;0.90;100.00;100448.81;5024234;28;20083;-66
2023/01/19 09:35:59;;;;;;;42.13;19.45;;;;;;;0.86;100.00;100449.13;5024389;28;20021;-64
2023/01/19 09:38:25;;;;;;;37.17;20.23;;;;;;;0.77;100.00;100451.75;5024354;28;20075;-66
2023/01/19 09:40:54;;;;;;;30.75;19.00;;;;;;;0.71;100.00;100461.03;5006432;28;20117;-65
2023/01/19 09:43:41;;;;;;;38.70;20.25;;;;;;;0.61;100.00;100468.09;5024149;28;20041;-65
2023/01/19 09:46:21;;;;;;;39.17;20.42;;;;;;;0.59;100.00;100483.16;5024129;28;20032;-65
2023/01/19 09:48:51;;;;;;;36.90;18.48;;;;;;;0.51;100.00;100460.25;5024110;28;20041;-65
2023/01/19 09:51:32;;;;;;;39.15;21.27;;;;;;;0.57;100.00;100480.66;5023882;28;20087;-66
2023/01/19 09:54:05;;;;;;;36.05;21.33;;;;;;;0.55;100.00;100476.53;5023700;28;20063;-66
2023/01/19 09:56:31;;;;;;;36.28;18.90;;;;;;;0.54;100.00;100475.69;5023625;28;20450;-65
2023/01/19 09:58:58;;;;;;;36.50;20.60;;;;;;;0.56;100.00;100486.91;5024809;28;20184;-66
2023/01/19 10:01:38;;;;;;;37.20;19.10;;;;;;;0.64;100.00;100480.94;5029485;28;20432;-65
2023/01/19 10:04:31;;;;;;;39.03;20.67;;;;;;;0.75;100.00;100487.81;5029401;28;20119;-66
2023/01/19 10:07:14;;;;;;;46.17;21.67;;;;;;;0.74;100.00;100488.81;5029577;28;20091;-66
2023/01/19 10:09:52;;;;;;;46.00;23.15;;;;;;;0.73;100.00;100492.38;5029646;28;20032;-66
2023/01/19 10:12:35;;;;;;;42.30;23.65;;;;;;;0.72;100.00;100491.56;5029716;28;20044;-66
2023/01/19 10:15:23;;;;;;;37.08;18.88;;;;;;;0.82;100.00;100495.00;5029495;28;20120;-65
2023/01/19 10:17:58;;;;;;;33.97;18.83;;;;;;;0.89;100.00;100497.84;5029141;28;20424;-66
2023/01/19 10:20:35;;;;;;;43.65;21.17;;;;;;;1.01;100.00;100498.53;5029279;28;20397;-66
2023/01/19 10:23:12;;;;;;;36.15;19.80;;;;;;;1.04;100.00;100498.22;5029229;28;20049;-65
2023/01/19 10:25:39;;;;;;;41.25;19.70;;;;;;;1.07;100.00;100504.03;5029133;28;20022;-66
2023/01/19 10:28:05;;;;;;;38.78;19.35;;;;;;;1.09;100.00;100496.00;5029383;28;20052;-66
2023/01/19 10:30:30;;;;;;;32.47;17.42;;;;;;;1.10;100.00;100497.66;5029373;28;20037;-66
2023/01/19 10:32:56;;;;;;;32.78;16.52;;;;;;;1.16;100.00;100507.59;4995089;28;20033;-66
2023/01/19 10:35:23;;;;;;;37.00;20.48;;;;;;;1.21;100.00;100508.00;5029228;28;20037;-66
2023/01/19 10:37:57;;;;;;;35.38;19.00;;;;;;;1.24;100.00;100506.88;5029247;28;20103;-66
2023/01/19 10:40:41;;;;;;;35.05;17.77;;;;;;;1.26;100.00;100507.56;5032192;28;20022;-66
2023/01/19 10:43:43;;;;;;;36.13;17.77;;;;;;;1.25;100.00;100511.97;5033130;28;20079;-71
2023/01/19 10:46:37;;;;;;;32.45;16.55;;;;;;;1.20;100.00;100501.06;5033165;28;20025;-71
2023/01/19 10:49:04;;;;;;;30.05;15.52;;;;;;;1.27;100.00;100510.03;5033038;28;20061;-68
2023/01/19 10:51:29;;;;;;;28.00;14.55;;;;;;;1.31;100.00;100519.28;5032853;28;20372;-70
2023/01/19 10:54:01;;;;;;;35.58;18.42;;;;;;;1.29;100.00;100510.72;5032726;28;20021;-71
2023/01/19 10:56:37;;;;;;;29.45;17.45;;;;;;;1.36;100.00;100510.13;5031922;28;20041;-70
2023/01/19 10:59:04;;;;;;;34.30;15.30;;;;;;;1.37;100.00;100509.19;5031453;28;20087;-70
2023/01/19 11:01:34;;;;;;;24.90;13.63;;;;;;;1.40;100.00;100514.97;5031585;28;20029;-70
2023/01/19 11:04:04;;;;;;;30.73;17.17;;;;;;;1.43;100.00;100512.03;5031273;28;20079;-71
2023/01/19 11:06:31;;;;;;;26.67;15.52;;;;;;;1.42;100.00;100509.56;5032153;28;20037;-70
2023/01/19 11:09:29;;;;;;;39.03;18.27;;;;;;;1.50;100.00;100510.47;5032420;28;20030;-70
2023/01/19 11:11:54;;;;;;;31.05;16.17;;;;;;;1.49;100.00;100500.09;4998619;28;20527;-70
2023/01/19 11:14:23;;;;;;;31.38;15.73;;;;;;;1.56;100.00;100509.06;5032352;28;20104;-71
2023/01/19 11:16:57;;;;;;;24.92;13.57;;;;;;;1.62;100.00;100505.03;5032232;28;20042;-71
2023/01/19 11:19:29;;;;;;;23.73;14.48;;;;;;;1.68;100.00;100514.97;5032312;28;20029;-71
2023/01/19 11:22:21;;;;;;;28.50;14.55;;;;;;;1.66;100.00;100507.22;5032183;28;20040;-71
2023/01/19 11:24:48;;;;;;;24.85;13.13;;;;;;;1.76;100.00;100512.44;5032066;28;20038;-71